ADDS TAF Board (Experimental) INFO Settings
IDs: Format: Expanded Condensed

KLGA - New York/La Guardia, NY, US

Issued at 0830 UTC 04 May 2016
Updated at: 0953 UTC 04 May 2016
Time0939Z 04/10Z 04/11Z 04/12Z 04/13Z 04/14Z 04/15Z 04/16Z 04/17Z 04/18Z 04/19Z 04/20Z 04/21Z 04/22Z
Type OBS PRVL
  [TEMP]  
PRVL
  [TEMP]  
PRVL PRVL PRVL PRVL PRVL PRVL PRVL PRVL PRVL PRVL PRVL
VIS 10 4 4 3 3 3 4 4 4 4 4 4 4 4
CIG 13 20
  [12]  
20
  [12]  
15 15 15 12 12 12 12 12 12 12 12
Cover OVC BKN
  [BKN]  
BKN
  [BKN]  
BKN BKN BKN OVC OVC OVC OVC OVC OVC OVC OVC
FltCat MVFR MVFR
  [MVFR]  
MVFR
  [MVFR]  
MVFR MVFR MVFR MVFR MVFR MVFR MVFR MVFR MVFR MVFR MVFR
WX -- -DZ BR
  [--]  
-DZ BR
  [--]  
-DZ BR -DZ BR -DZ BR -SHRA BR -SHRA BR -SHRA BR -SHRA BR -SHRA BR -SHRA BR -SHRA BR -SHRA BR
WDir 50 80
[80]
80
[80]
70 70 70 60 60 60 60 60 60 60 60
WSpd 7 7
  [7]  
7
  [7]  
9 9 9 12 12 12 12 12 12 12 12
WGst -- --
  [--]  
--
  [--]  
-- -- -- 17 17 17 17 17 17 17 17
R04/22
XWnd -2 -5 -5 -6 -6 -6 -6 -6 -6 -6 -6 -6 -6 -6
XGst -- 0 0 -- -- -- -8 -8 -8 -8 -8 -8 -8 -8
HWnd 7 5 5 7 7 7 11 11 11 11 11 11 11 11
HGst -- 0 0 -- -- -- 15 15 15 15 15 15 15 15
R13/31
XWnd 7 5 5 7 7 7 11 11 11 11 11 11 11 11
XGst -- 0 0 -- -- -- 15 15 15 15 15 15 15 15
HWnd 2 5 5 6 6 6 6 6 6 6 6 6 6 6
HGst -- 0 0 -- -- -- 8 8 8 8 8 8 8 8

NOTE: TEMPO conditions in [brackets]. Keep in mind TEMPO conditions might be better (lower impact) than prevailing conditions.

Raw TAF
KLGA 040830Z 0409/0506 08007KT 4SM -DZ BR SCT010 BKN020
  TEMPO 0409/0412 BKN012
  FM041200 07009KT 3SM -DZ BR SCT010 BKN015
  FM041500 06012G17KT 4SM -SHRA BR SCT006 OVC012
  FM050100 03012G20KT 5SM -DZ BR BKN006 OVC010


Raw METAR
KLGA 040939Z 05007KT 10SM BKN013 OVC022 10/09 A2980 RMK AO2 RAE28 P0001 $
KLGA 040851Z 08006KT 10SM -RA OVC026 11/09 A2980 RMK AO2 RAB51 SLP091 P0000 60000 T01060089 55002 $
KLGA 040751Z 07004KT 10SM FEW009 BKN020 OVC026 11/09 A2980 RMK AO2 SLP091 T01060094 $
KLGA 040747Z 07004KT 10SM FEW009 BKN022 OVC026 10/09 A2980 RMK AO2 $
KLGA 040651Z 10007KT 10SM BKN009 OVC012 11/10 A2981 RMK AO2 SLP093 T01060100 $
KLGA 040646Z 11006KT 3SM OVC009 11/10 A2981 RMK AO2 SFC VIS 10 $

METAR Board
Radar Display
Forecast Discussion

TAF Board Legend

Potential Impact
Threat None Slight Moderate High
Visibility (sm) ≥5.1 5.1>X≥3 3>X≥1 <1
Ceiling (100 ft) ≥30.1 30.1>X≥10 10>X≥5 <5
Wind Speed (kt) <10 10≤X<20 20≤X<30 ≥30
Wind Gust (kt) <15 15≤X<25 25≤X<35 ≥35
Weather No Wx Reported VCTS,-TS,-FZRA,SN TS,FZRA +TS,+FZRA,+SN